Muleshoe, Texas
Current Conditions -  °F | °C
As of 8:55 AM on Sunday 23 Nov 2014 (Local Time) from KCVN Reporting Station
Clear Clear  
Wind Chill: 52°   Ceiling: Unl
Heat Index: 52°   Visibility: 10mi
Dew Point: 19°   Wind: 31mph
Humidity: 28%   Direction: 270°W
Pressure: 29.62"   Gusts: 40mph
Location:  34.23°N, 102.72°W
Report Text: KCVN 231455Z 27027G35KT 10SM CLR 11/M07 A2962 RMK AO1 54000
Loading
Personal Weather Stations






























Interactive Weather Map New forecast layout! Learn more

10-Day Weather Forecast

Advertisements
Track Severe Weather on mobile